Time;durP1;ratioP1;P1;durP2;ratioP2;P2;SDS_P1;SDS_P2;PMS_P1;PMS_P2;Temp;Humidity;BMP_temperature;BMP_pressure;BME280_temperature;BME280_humidity;BME280_pressure;Samples;Min_cycle;Max_cycle;Signal;HPM_P1;HPM_P2
2023/06/13 00:01:48;;;;;;;7.17;6.87;;;;;;;21.58;97.51;98971.19;5051097;28;20201;-67
2023/06/13 00:04:21;;;;;;;6.97;6.47;;;;;;;21.57;97.65;98964.97;5034777;28;20280;-67
2023/06/13 00:06:48;;;;;;;7.67;7.27;;;;;;;21.54;97.50;98965.53;5034708;28;20219;-66
2023/06/13 00:09:15;;;;;;;7.50;6.90;;;;;;;21.50;97.56;98969.88;5034484;28;20220;-66
2023/06/13 00:11:41;;;;;;;7.10;6.53;;;;;;;21.54;98.27;98976.34;5050875;28;20575;-66
2023/06/13 00:14:10;;;;;;;7.53;6.93;;;;;;;21.59;98.66;98975.50;5054712;28;20193;-66
2023/06/13 00:16:38;;;;;;;7.50;7.10;;;;;;;21.52;97.81;98959.59;5054434;28;20283;-67
2023/06/13 00:19:09;;;;;;;7.80;7.40;;;;;;;21.49;97.83;98962.06;5045335;28;20732;-67
2023/06/13 00:21:36;;;;;;;8.00;7.37;;;;;;;21.49;98.25;98954.75;5033549;28;20739;-67
2023/06/13 00:24:03;;;;;;;7.53;7.03;;;;;;;21.54;98.55;98949.31;5034157;28;20228;-67
2023/06/13 00:26:30;;;;;;;8.53;7.83;;;;;;;21.56;97.99;98952.53;5034293;28;20193;-67
2023/06/13 00:28:57;;;;;;;7.80;7.40;;;;;;;21.57;98.24;98940.66;5040546;28;20197;-66
2023/06/13 00:31:24;;;;;;;8.93;7.83;;;;;;;21.59;98.70;98941.16;5054025;28;20216;-66
2023/06/13 00:33:51;;;;;;;8.63;8.03;;;;;;;21.58;98.70;98938.75;5054388;28;20201;-66
2023/06/13 00:36:20;;;;;;;8.67;8.10;;;;;;;21.58;99.03;98946.84;5054344;28;20196;-67
2023/06/13 00:38:48;;;;;;;8.27;7.87;;;;;;;21.58;98.83;98950.38;5048525;28;20193;-66
2023/06/13 00:41:15;;;;;;;8.23;7.70;;;;;;;21.58;98.67;98944.97;5034240;28;20266;-67
2023/06/13 00:43:43;;;;;;;8.73;8.00;;;;;;;21.62;98.21;98943.31;5034217;28;20255;-67
2023/06/13 00:46:13;;;;;;;8.60;8.00;;;;;;;21.62;97.45;98946.03;5034268;28;20194;-67
2023/06/13 00:48:43;;;;;;;7.80;7.40;;;;;;;21.65;97.71;98950.06;5041729;28;20184;-66
2023/06/13 00:51:12;;;;;;;7.93;7.33;;;;;;;21.64;96.64;98949.25;5053675;28;20243;-66
2023/06/13 00:53:40;;;;;;;8.07;7.50;;;;;;;21.52;97.41;98948.78;5053940;28;20283;-66
2023/06/13 00:56:07;;;;;;;8.73;8.03;;;;;;;21.43;98.31;98942.34;5053925;28;20189;-66
2023/06/13 00:58:35;;;;;;;9.33;8.70;;;;;;;21.45;99.75;98945.59;5044839;28;20548;-66
2023/06/13 01:01:03;;;;;;;9.20;8.50;;;;;;;21.47;99.23;98931.81;5033871;28;20193;-67
2023/06/13 01:03:33;;;;;;;8.37;7.97;;;;;;;21.43;99.52;98936.94;5033538;28;20193;-66
2023/06/13 01:05:59;;;;;;;8.87;8.17;;;;;;;21.46;99.82;98931.00;5033814;28;20193;-67
2023/06/13 01:08:28;;;;;;;8.43;7.93;;;;;;;21.51;100.00;98932.88;5038486;28;20196;-66
2023/06/13 01:11:00;;;;;;;9.53;8.77;;;;;;;21.49;99.49;98927.75;5052569;28;20715;-66
2023/06/13 01:13:34;;;;;;;9.60;9.00;;;;;;;21.52;99.73;98937.19;5053661;28;20629;-66
2023/06/13 01:16:12;;;;;;;10.67;9.97;;;;;;;21.55;99.43;98920.41;5053325;28;20184;-65
2023/06/13 01:18:44;;;;;;;11.07;10.20;;;;;;;21.53;98.41;98912.56;5045487;28;20251;-68
2023/06/13 01:21:13;;;;;;;10.63;9.73;;;;;;;21.57;99.23;98919.03;5033213;28;20636;-65
2023/06/13 01:23:49;;;;;;;11.10;10.30;;;;;;;21.59;98.62;98914.13;5033478;28;20251;-65
2023/06/13 01:26:33;;;;;;;10.27;9.47;;;;;;;21.63;99.00;98920.59;5033400;28;20189;-66
2023/06/13 01:29:03;;;;;;;11.57;10.77;;;;;;;21.66;99.20;98913.81;5041800;28;20196;-66
2023/06/13 01:31:32;;;;;;;10.23;9.43;;;;;;;21.64;98.69;98918.72;5053224;28;20325;-66
2023/06/13 01:33:59;;;;;;;9.50;8.90;;;;;;;21.61;99.58;98920.09;5052722;28;20193;-66
2023/06/13 01:36:27;;;;;;;10.53;9.73;;;;;;;21.67;99.59;98927.06;5053249;28;20189;-66
2023/06/13 01:38:54;;;;;;;10.63;9.83;;;;;;;21.70;98.67;98920.28;5043487;28;20762;-67
2023/06/13 01:41:21;;;;;;;9.83;9.13;;;;;;;21.66;98.93;98909.22;5033178;28;20196;-65
2023/06/13 01:43:48;;;;;;;11.10;10.20;;;;;;;21.77;97.63;98921.63;5033004;28;20205;-66
2023/06/13 01:46:24;;;;;;;10.30;9.43;;;;;;;21.69;97.46;98924.09;5032543;28;20216;-66
2023/06/13 01:49:01;;;;;;;11.00;10.20;;;;;;;21.67;98.27;98921.66;5033687;28;20268;-66
2023/06/13 01:51:32;;;;;;;10.50;9.80;;;;;;;21.70;98.83;98921.13;5032638;28;20258;-66
2023/06/13 01:54:07;;;;;;;12.13;11.33;;;;;;;21.70;98.99;98925.69;5033001;28;20190;-66
2023/06/13 01:56:36;;;;;;;12.17;11.27;;;;;;;21.70;98.80;98920.28;5032949;28;20239;-66
2023/06/13 01:59:06;;;;;;;13.57;12.43;;;;;;;21.55;98.69;98923.91;5041150;28;20189;-66
2023/06/13 02:01:38;;;;;;;13.93;12.90;;;;;;;21.47;99.53;98929.91;5052434;28;20645;-65
2023/06/13 02:04:05;;;;;;;14.30;12.93;;;;;;;21.43;100.00;98925.34;5052705;28;20185;-65
2023/06/13 02:06:32;;;;;;;14.80;13.40;;;;;;;21.43;100.00;98931.53;5016917;28;20654;-65
2023/06/13 02:09:01;;;;;;;15.60;14.20;;;;;;;21.40;99.98;98932.09;5052266;28;20208;-66
2023/06/13 02:11:28;;;;;;;15.17;13.90;;;;;;;21.25;99.39;98924.09;5052372;28;20223;-65
2023/06/13 02:13:55;;;;;;;16.47;15.17;;;;;;;21.15;99.64;98934.94;5052623;28;20193;-65
2023/06/13 02:16:25;;;;;;;15.33;14.23;;;;;;;21.16;100.00;98925.75;5052168;28;20192;-66
2023/06/13 02:18:53;;;;;;;14.33;12.77;;;;;;;21.10;100.00;98920.66;5047598;28;20192;-65
2023/06/13 02:21:20;;;;;;;11.97;11.10;;;;;;;21.09;100.00;98927.94;5052026;28;20196;-65
2023/06/13 02:23:46;;;;;;;14.77;13.57;;;;;;;21.18;100.00;98926.28;5052414;28;20202;-65
2023/06/13 02:26:14;;;;;;;15.77;14.30;;;;;;;21.20;100.00;98929.53;5051956;28;20295;-65
2023/06/13 02:28:41;;;;;;;14.47;13.03;;;;;;;21.15;100.00;98916.03;5032983;28;20200;-65
2023/06/13 02:31:08;;;;;;;14.67;13.47;;;;;;;21.22;100.00;98932.75;5031861;28;20253;-65
2023/06/13 02:33:36;;;;;;;13.40;12.30;;;;;;;21.13;100.00;98931.72;5032327;28;20189;-65
2023/06/13 02:36:05;;;;;;;14.00;12.93;;;;;;;21.16;100.00;98931.16;5032202;28;20244;-65
2023/06/13 02:38:32;;;;;;;15.50;13.97;;;;;;;21.13;100.00;98939.00;5042599;28;20196;-65
2023/06/13 02:40:59;;;;;;;15.17;13.97;;;;;;;21.18;100.00;98933.56;5032378;28;20233;-65
2023/06/13 02:43:26;;;;;;;14.70;13.43;;;;;;;21.19;100.00;98936.00;5031948;28;20236;-65
2023/06/13 02:45:53;;;;;;;14.50;13.50;;;;;;;21.28;100.00;98945.16;5031308;28;20726;-65
2023/06/13 02:48:21;;;;;;;13.37;12.43;;;;;;;21.32;100.00;98950.81;5045489;28;20722;-66
2023/06/13 02:50:48;;;;;;;16.70;15.17;;;;;;;21.34;100.00;98949.44;5051863;28;20307;-66
2023/06/13 02:53:16;;;;;;;34.00;27.43;;;;;;;21.31;100.00;98949.97;5052019;28;20196;-67
2023/06/13 02:55:44;;;;;;;19.50;16.73;;;;;;;21.33;100.00;98955.94;5051584;28;20750;-67
2023/06/13 02:58:11;;;;;;;12.53;11.40;;;;;;;21.19;99.63;98957.59;5038581;28;20203;-67
2023/06/13 03:00:38;;;;;;;16.73;13.00;;;;;;;21.18;100.00;98950.59;5031855;28;20194;-66
2023/06/13 03:03:04;;;;;;;14.10;12.07;;;;;;;21.22;100.00;98957.06;5031895;28;20193;-66
2023/06/13 03:05:32;;;;;;;13.27;12.07;;;;;;;21.27;100.00;98956.25;5035311;28;20234;-66
2023/06/13 03:07:59;;;;;;;16.93;14.97;;;;;;;21.21;99.43;98966.25;5051265;28;20275;-66
2023/06/13 03:10:27;;;;;;;24.30;21.80;;;;;;;21.06;97.77;98969.00;5051504;28;20254;-66
2023/06/13 03:12:54;;;;;;;25.80;20.10;;;;;;;21.08;98.15;98964.16;5051776;28;20228;-67
2023/06/13 03:15:21;;;;;;;20.03;17.90;;;;;;;21.13;97.95;98974.94;5047981;28;20197;-67
2023/06/13 03:17:47;;;;;;;25.17;19.57;;;;;;;21.20;96.81;98967.34;5031600;28;20201;-66
2023/06/13 03:20:16;;;;;;;22.60;18.67;;;;;;;21.23;96.10;98969.47;5031432;28;20197;-66
2023/06/13 03:22:42;;;;;;;24.73;19.67;;;;;;;21.19;94.51;98970.31;5031851;28;20280;-66
2023/06/13 03:25:10;;;;;;;22.87;20.40;;;;;;;21.22;94.15;98972.44;5031699;28;20220;-67
2023/06/13 03:27:38;;;;;;;20.07;18.00;;;;;;;21.15;93.26;98978.16;5052125;28;20342;-66
2023/06/13 03:30:07;;;;;;;18.87;16.97;;;;;;;21.07;90.66;98970.63;5051140;28;20699;-67
2023/06/13 03:32:34;;;;;;;18.67;15.30;;;;;;;21.10;91.88;98969.28;5051306;28;20228;-66
2023/06/13 03:35:01;;;;;;;22.80;16.60;;;;;;;21.14;91.49;98968.44;5037174;28;20573;-66
2023/06/13 03:37:28;;;;;;;16.73;15.13;;;;;;;21.20;91.25;98975.44;5031172;28;20588;-66
2023/06/13 03:39:54;;;;;;;15.30;14.07;;;;;;;21.23;90.25;98974.09;5030679;28;20653;-66
2023/06/13 03:42:21;;;;;;;13.77;11.27;;;;;;;21.25;90.59;98975.41;5032428;28;20201;-66
2023/06/13 03:44:49;;;;;;;10.93;10.07;;;;;;;21.20;89.80;98975.44;5031134;28;20198;-66
2023/06/13 03:47:16;;;;;;;11.03;10.00;;;;;;;21.20;89.59;98966.53;5030786;28;20225;-66
2023/06/13 03:49:43;;;;;;;10.43;8.03;;;;;;;21.20;89.61;98970.06;5031206;28;20253;-66
2023/06/13 03:52:10;;;;;;;9.37;8.40;;;;;;;21.18;89.45;98980.31;5030556;28;20725;-66
2023/06/13 03:54:37;;;;;;;10.40;8.17;;;;;;;21.22;89.47;98978.66;5030837;28;20673;-66
2023/06/13 03:57:05;;;;;;;12.47;8.50;;;;;;;21.23;89.38;98980.28;5032178;28;20186;-66
2023/06/13 03:59:32;;;;;;;9.20;8.33;;;;;;;21.27;89.41;98980.56;5034513;28;20645;-66
2023/06/13 04:02:00;;;;;;;8.63;7.63;;;;;;;21.33;89.85;98979.44;5034524;28;20320;-66
2023/06/13 04:04:27;;;;;;;10.07;9.10;;;;;;;21.36;89.32;98985.06;5034589;28;20641;-66
2023/06/13 04:06:55;;;;;;;8.10;7.03;;;;;;;21.43;89.42;98982.88;5031717;28;20657;-66
2023/06/13 04:09:22;;;;;;;8.00;7.17;;;;;;;21.53;88.45;98985.56;5034728;28;20197;-67
2023/06/13 04:11:48;;;;;;;13.50;7.97;;;;;;;21.61;88.16;98993.06;5034817;28;20310;-67
2023/06/13 04:14:15;;;;;;;10.73;8.47;;;;;;;21.65;88.31;98996.00;5034407;28;20190;-66
2023/06/13 04:16:43;;;;;;;8.40;7.60;;;;;;;21.73;86.90;98993.56;5034204;28;20193;-67
2023/06/13 04:19:17;;;;;;;9.90;6.97;;;;;;;21.81;86.32;99003.78;5034413;28;20679;-67
2023/06/13 04:21:45;;;;;;;7.10;6.20;;;;;;;22.08;87.49;99004.13;5034402;28;20646;-63
2023/06/13 04:24:12;;;;;;;10.83;7.17;;;;;;;22.31;86.92;99008.84;5034088;28;20189;-61
2023/06/13 04:26:40;;;;;;;9.53;7.20;;;;;;;22.52;84.99;99014.88;5033989;28;20197;-61
2023/06/13 04:29:07;;;;;;;5.77;5.10;;;;;;;22.58;84.51;99013.78;5033450;28;20272;-62
2023/06/13 04:31:35;;;;;;;6.10;5.60;;;;;;;22.79;83.60;99015.97;5033984;28;20212;-62
2023/06/13 04:34:03;;;;;;;8.17;5.73;;;;;;;22.88;80.04;99018.88;5031814;28;20197;-64
2023/06/13 04:36:33;;;;;;;11.57;7.20;;;;;;;22.84;79.09;99028.66;5033660;28;20196;-64
2023/06/13 04:39:06;;;;;;;6.63;5.50;;;;;;;22.81;80.58;99024.63;5033531;28;20186;-66
2023/06/13 04:41:34;;;;;;;7.67;6.20;;;;;;;22.98;81.15;99014.16;5034059;28;20568;-64
2023/06/13 04:44:03;;;;;;;5.57;5.07;;;;;;;23.20;80.15;99019.88;5033805;28;20186;-65
2023/06/13 04:46:30;;;;;;;9.50;6.07;;;;;;;23.41;77.97;99036.72;5033396;28;20240;-66
2023/06/13 04:48:58;;;;;;;8.53;6.17;;;;;;;23.57;78.14;99028.09;5033455;28;20754;-67
2023/06/13 04:51:25;;;;;;;10.17;6.13;;;;;;;23.76;76.67;99026.22;5033332;28;20215;-66
2023/06/13 04:53:53;;;;;;;6.80;6.03;;;;;;;23.90;76.65;99029.00;5033560;28;20190;-64
2023/06/13 04:56:20;;;;;;;8.93;6.20;;;;;;;24.09;75.96;99036.06;5033250;28;20269;-64
2023/06/13 04:58:47;;;;;;;9.20;8.33;;;;;;;24.19;73.46;99038.63;5033283;28;20207;-63
2023/06/13 05:01:13;;;;;;;11.03;6.47;;;;;;;24.24;74.25;99052.13;5033784;28;20245;-63
2023/06/13 05:03:41;;;;;;;6.80;6.20;;;;;;;24.37;74.29;99048.66;5033630;28;20256;-68
2023/06/13 05:06:08;;;;;;;14.43;6.80;;;;;;;24.36;73.66;99044.34;5033935;28;20204;-70
2023/06/13 05:08:34;;;;;;;6.37;5.77;;;;;;;24.44;73.98;99059.94;5033340;28;20579;-71
2023/06/13 05:11:02;;;;;;;6.97;6.20;;;;;;;24.60;73.85;99046.91;5033264;28;20618;-72
2023/06/13 05:13:29;;;;;;;8.10;7.43;;;;;;;24.72;72.44;99056.25;5033567;28;20235;-73
2023/06/13 05:15:56;;;;;;;8.37;7.67;;;;;;;24.87;72.20;99052.47;5033213;28;20251;-75
2023/06/13 05:18:24;;;;;;;9.43;7.87;;;;;;;24.98;71.38;99054.69;5033404;28;20204;-71
2023/06/13 05:20:51;;;;;;;7.77;7.27;;;;;;;25.13;71.69;99061.75;5031796;28;20195;-71
2023/06/13 05:23:20;;;;;;;10.77;6.47;;;;;;;25.30;71.51;99059.25;5032416;28;20640;-72
2023/06/13 05:25:48;;;;;;;8.03;7.33;;;;;;;25.43;70.72;99068.53;5032863;28;20256;-71
2023/06/13 05:28:17;;;;;;;13.83;6.90;;;;;;;25.57;70.00;99074.78;5031977;28;20197;-70
2023/06/13 05:30:43;;;;;;;7.03;6.40;;;;;;;25.62;69.51;99075.47;5031150;28;20657;-71
2023/06/13 05:33:10;;;;;;;6.83;6.13;;;;;;;25.80;69.62;99082.69;5030413;28;20229;-71
2023/06/13 05:35:37;;;;;;;7.47;6.80;;;;;;;25.93;68.83;99081.88;5030359;28;20263;-72
2023/06/13 05:38:04;;;;;;;6.53;6.00;;;;;;;26.09;68.16;99080.44;5028768;28;20743;-72
2023/06/13 05:40:30;;;;;;;9.80;6.20;;;;;;;26.12;67.43;99090.72;5024389;28;20217;-73
2023/06/13 05:42:57;;;;;;;12.20;6.63;;;;;;;26.15;66.65;99081.97;5029726;28;20755;-71
2023/06/13 05:45:25;;;;;;;7.20;6.53;;;;;;;26.24;67.26;99090.19;5028479;28;20670;-71
2023/06/13 05:47:52;;;;;;;6.60;6.10;;;;;;;26.35;66.10;99089.66;5029500;28;20192;-72
2023/06/13 05:50:19;;;;;;;7.47;6.77;;;;;;;26.46;66.25;99084.78;5029857;28;20248;-71
2023/06/13 05:52:45;;;;;;;6.13;5.60;;;;;;;26.57;66.00;99091.56;5030945;28;20275;-71
2023/06/13 05:55:12;;;;;;;6.30;5.80;;;;;;;26.64;65.48;99091.97;5028323;28;20273;-72
2023/06/13 05:57:40;;;;;;;10.83;7.77;;;;;;;26.65;64.46;99093.59;5029186;28;20225;-72
2023/06/13 06:00:08;;;;;;;7.83;7.03;;;;;;;26.51;66.84;99081.94;5028026;28;20687;-71
2023/06/13 06:02:36;;;;;;;6.67;5.93;;;;;;;26.69;66.09;99089.13;5027185;28;20280;-72
2023/06/13 06:05:04;;;;;;;9.27;6.97;;;;;;;26.86;63.78;99092.00;5029092;28;20198;-72
2023/06/13 06:07:31;;;;;;;8.67;6.80;;;;;;;27.03;63.72;99089.34;5029744;28;20203;-73
2023/06/13 06:09:58;;;;;;;11.10;7.13;;;;;;;27.02;63.92;99083.09;5029401;28;20193;-70
2023/06/13 06:12:24;;;;;;;9.17;6.67;;;;;;;27.13;64.10;99089.06;5029822;28;20294;-70
2023/06/13 06:14:51;;;;;;;7.80;6.33;;;;;;;27.26;64.04;99088.19;5030595;28;20227;-69
2023/06/13 06:17:19;;;;;;;7.70;6.87;;;;;;;27.43;63.42;99082.81;5028810;28;20244;-70
2023/06/13 06:19:48;;;;;;;12.00;8.10;;;;;;;27.47;62.71;99090.06;5029518;28;20197;-71
2023/06/13 06:22:15;;;;;;;11.37;7.80;;;;;;;27.14;62.86;99083.31;5029605;28;20262;-71
2023/06/13 06:24:43;;;;;;;11.13;8.10;;;;;;;26.95;63.78;99076.47;5029528;28;20215;-70
2023/06/13 06:27:11;;;;;;;7.47;6.70;;;;;;;27.03;65.12;99078.44;5031102;28;20198;-70
2023/06/13 06:29:37;;;;;;;7.27;5.97;;;;;;;27.25;63.86;99081.13;5030255;28;20259;-69
2023/06/13 06:32:05;;;;;;;8.63;7.83;;;;;;;27.57;62.86;99084.31;5030284;28;20221;-71
2023/06/13 06:34:32;;;;;;;7.90;7.10;;;;;;;27.86;62.35;99081.88;5030315;28;20661;-70
2023/06/13 06:37:00;;;;;;;8.97;7.03;;;;;;;28.23;60.91;99084.00;5032122;28;20259;-70
2023/06/13 06:39:26;;;;;;;15.20;7.80;;;;;;;28.50;60.25;99088.38;5031984;28;20225;-70
2023/06/13 06:41:53;;;;;;;11.23;8.13;;;;;;;28.54;59.32;99089.31;5032010;28;20193;-69
2023/06/13 06:44:20;;;;;;;9.97;7.73;;;;;;;28.26;59.68;99085.28;5031955;28;20247;-70
2023/06/13 06:46:46;;;;;;;9.43;8.63;;;;;;;27.86;59.46;99076.41;5032107;28;20197;-70
2023/06/13 06:49:13;;;;;;;9.00;8.13;;;;;;;27.84;60.32;99075.09;5031562;28;20197;-70
2023/06/13 06:51:40;;;;;;;10.30;8.00;;;;;;;28.02;60.69;99074.00;5031586;28;20193;-70
2023/06/13 06:54:08;;;;;;;8.77;8.20;;;;;;;27.98;60.28;99073.03;5031773;28;20189;-70
2023/06/13 06:56:35;;;;;;;8.50;7.37;;;;;;;27.87;60.99;99072.53;5032089;28;20189;-70
2023/06/13 06:59:01;;;;;;;8.90;7.73;;;;;;;27.77;61.09;99072.78;5031847;28;20255;-70
2023/06/13 07:01:28;;;;;;;8.67;7.77;;;;;;;27.86;61.31;99075.59;5031520;28;20197;-70
2023/06/13 07:03:55;;;;;;;8.57;7.17;;;;;;;27.89;60.24;99077.69;5031375;28;20197;-70
2023/06/13 07:06:21;;;;;;;7.90;7.20;;;;;;;27.96;59.56;99075.25;5031809;28;20193;-70
2023/06/13 07:08:48;;;;;;;7.30;6.60;;;;;;;27.84;59.72;99067.72;5031756;28;20676;-70
2023/06/13 07:11:16;;;;;;;8.37;7.67;;;;;;;27.76;59.40;99075.88;5031580;28;20193;-70
2023/06/13 07:13:43;;;;;;;8.67;7.87;;;;;;;27.65;60.01;99074.56;5031888;28;20221;-71
2023/06/13 07:16:10;;;;;;;11.67;7.33;;;;;;;27.57;60.15;99078.06;5031761;28;20189;-70
2023/06/13 07:18:36;;;;;;;9.83;7.70;;;;;;;27.41;60.29;99063.22;5032111;28;20209;-70
2023/06/13 07:21:03;;;;;;;7.47;6.57;;;;;;;27.58;60.58;99076.94;5031698;28;20193;-70
2023/06/13 07:23:30;;;;;;;7.43;5.90;;;;;;;27.70;60.88;99071.66;5031384;28;20198;-69
2023/06/13 07:25:57;;;;;;;6.17;5.73;;;;;;;28.16;59.94;99080.09;5031285;28;20194;-67
2023/06/13 07:28:25;;;;;;;6.47;5.97;;;;;;;28.49;57.62;99081.25;5031624;28;20248;-67
2023/06/13 07:30:52;;;;;;;10.23;6.07;;;;;;;28.46;57.94;99073.72;5032265;28;20193;-72
2023/06/13 07:33:18;;;;;;;7.20;5.70;;;;;;;28.44;57.76;99075.97;5035378;28;20320;-73
2023/06/13 07:35:45;;;;;;;7.53;4.90;;;;;;;28.65;56.71;99082.38;5035530;28;20251;-71
2023/06/13 07:38:12;;;;;;;6.83;5.17;;;;;;;28.93;55.18;99094.56;5033639;28;20271;-74
2023/06/13 07:40:38;;;;;;;5.80;5.30;;;;;;;29.16;53.97;99087.78;5034442;28;20237;-75
2023/06/13 07:43:05;;;;;;;6.00;5.00;;;;;;;29.36;51.90;99095.25;5033859;28;20255;-73
2023/06/13 07:45:33;;;;;;;6.37;5.80;;;;;;;29.17;51.57;99087.44;5032635;28;20658;-71
2023/06/13 07:48:00;;;;;;;6.00;5.50;;;;;;;29.45;51.58;99093.28;5033400;28;20197;-72
2023/06/13 07:50:27;;;;;;;6.50;6.00;;;;;;;29.45;50.65;99090.56;5031531;28;20198;-69
2023/06/13 07:52:53;;;;;;;7.57;4.80;;;;;;;29.42;54.17;99080.25;5031111;28;20221;-72
2023/06/13 07:55:21;;;;;;;6.93;6.37;;;;;;;29.46;51.30;99089.41;5031299;28;20244;-70
2023/06/13 07:57:48;;;;;;;6.80;6.30;;;;;;;29.29;52.68;99084.03;5032328;28;20700;-68
2023/06/13 08:00:16;;;;;;;7.33;6.63;;;;;;;29.69;52.53;99079.03;5030579;28;20224;-69
2023/06/13 08:02:44;;;;;;;7.70;6.80;;;;;;;29.89;51.63;99083.75;5032383;28;20208;-69
2023/06/13 08:05:12;;;;;;;6.70;5.60;;;;;;;30.16;52.44;99084.06;5031629;28;20617;-68
2023/06/13 08:07:39;;;;;;;8.63;5.47;;;;;;;30.64;51.50;99089.78;5031962;28;20251;-68
2023/06/13 08:10:07;;;;;;;12.20;6.27;;;;;;;30.80;50.32;99093.53;5032912;28;20193;-67
2023/06/13 08:12:33;;;;;;;11.83;7.47;;;;;;;30.93;49.52;99092.41;5030670;28;20767;-71
2023/06/13 08:15:00;;;;;;;9.43;8.63;;;;;;;30.97;47.33;99095.28;5029497;28;20562;-68
2023/06/13 08:17:27;;;;;;;9.93;6.60;;;;;;;30.89;47.81;99087.94;5030572;28;20621;-69
2023/06/13 08:19:55;;;;;;;7.17;6.30;;;;;;;30.98;47.82;99081.22;5029587;28;20665;-69
2023/06/13 08:22:22;;;;;;;7.60;6.90;;;;;;;30.93;47.01;99080.63;5031980;28;20197;-68
2023/06/13 08:24:48;;;;;;;6.63;5.73;;;;;;;30.75;48.55;99071.81;5032685;28;20251;-68
2023/06/13 08:27:16;;;;;;;6.30;5.77;;;;;;;30.66;49.87;99070.25;5033357;28;20198;-68
2023/06/13 08:29:43;;;;;;;6.50;5.80;;;;;;;30.73;50.55;99060.34;5031000;28;20189;-68
2023/06/13 08:32:10;;;;;;;8.97;5.07;;;;;;;30.88;49.21;99067.94;5031670;28;20248;-68
2023/06/13 08:34:37;;;;;;;13.13;5.90;;;;;;;30.79;48.22;99069.97;5031643;28;20236;-72
2023/06/13 08:37:05;;;;;;;7.23;6.53;;;;;;;30.71;47.78;99070.88;5032122;28;20280;-66
2023/06/13 08:39:32;;;;;;;6.03;5.57;;;;;;;30.60;49.19;99061.44;5030919;28;20298;-66
2023/06/13 08:41:59;;;;;;;7.03;6.27;;;;;;;30.33;48.00;99070.22;5032209;28;20255;-66
2023/06/13 08:44:27;;;;;;;6.70;6.00;;;;;;;30.23;48.43;99059.66;5031965;28;20193;-66
2023/06/13 08:46:54;;;;;;;6.30;5.80;;;;;;;30.27;50.38;99052.38;5031903;28;20251;-67
2023/06/13 08:49:21;;;;;;;8.00;6.43;;;;;;;30.10;48.76;99057.16;5031995;28;20220;-67
2023/06/13 08:51:52;;;;;;;6.50;5.90;;;;;;;29.68;50.74;99050.81;5030860;28;20197;-66
2023/06/13 08:54:21;;;;;;;6.17;5.67;;;;;;;29.51;52.27;99044.63;5031476;28;20249;-70
2023/06/13 08:56:51;;;;;;;7.00;6.23;;;;;;;29.60;52.42;99038.00;5031702;28;20203;-64
2023/06/13 08:59:24;;;;;;;9.50;6.20;;;;;;;29.60;49.92;99051.69;5030549;28;20681;-68
2023/06/13 09:01:52;;;;;;;7.80;5.70;;;;;;;29.64;52.03;99041.66;5032596;28;20192;-68
2023/06/13 09:04:19;;;;;;;7.83;6.13;;;;;;;29.96;49.23;99040.19;5031321;28;20197;-67
2023/06/13 09:06:49;;;;;;;6.23;5.63;;;;;;;30.05;50.62;99044.44;5030780;28;20201;-66
2023/06/13 09:09:17;;;;;;;6.03;5.47;;;;;;;30.22;49.83;99036.16;5030013;28;20293;-70
2023/06/13 09:11:46;;;;;;;7.87;4.97;;;;;;;30.50;49.26;99039.91;5031334;28;20201;-66
2023/06/13 09:14:13;;;;;;;6.50;4.87;;;;;;;30.74;48.73;99033.75;5029808;28;20220;-67
2023/06/13 09:16:41;;;;;;;6.70;5.07;;;;;;;30.86;46.02;99042.78;5030798;28;20198;-69
2023/06/13 09:19:07;;;;;;;7.87;5.03;;;;;;;31.00;45.20;99029.56;5030459;28;20193;-68
2023/06/13 09:21:36;;;;;;;6.03;4.80;;;;;;;31.05;46.86;99029.34;5032309;28;20263;-66
2023/06/13 09:24:04;;;;;;;5.33;4.97;;;;;;;31.32;46.12;99034.19;5031095;28;20252;-68
2023/06/13 09:26:32;;;;;;;5.60;5.03;;;;;;;31.48;44.98;99035.09;5031426;28;20204;-68
2023/06/13 09:29:00;;;;;;;5.80;5.00;;;;;;;31.08;46.45;99036.91;5031655;28;20201;-69
2023/06/13 09:31:29;;;;;;;5.70;5.20;;;;;;;30.72;45.76;99020.34;5031837;28;20216;-70
2023/06/13 09:34:00;;;;;;;15.53;5.13;;;;;;;30.87;47.58;99010.69;5032119;28;20221;-68
2023/06/13 09:36:27;;;;;;;4.93;4.27;;;;;;;31.13;45.12;99025.69;5030984;28;20229;-64
2023/06/13 09:38:55;;;;;;;10.73;5.17;;;;;;;31.22;43.85;99026.38;5030691;28;20633;-65
2023/06/13 09:41:22;;;;;;;5.10;4.70;;;;;;;30.90;44.65;99027.25;5030868;28;20335;-65
2023/06/13 09:43:51;;;;;;;5.23;4.53;;;;;;;31.19;44.31;99024.31;5030552;28;20905;-66
2023/06/13 09:46:24;;;;;;;4.93;3.60;;;;;;;31.45;44.97;99013.03;5030298;28;20747;-67
2023/06/13 09:48:51;;;;;;;5.13;4.43;;;;;;;31.52;43.83;99022.28;5031762;28;20243;-67
2023/06/13 09:51:18;;;;;;;6.70;4.00;;;;;;;31.62;43.75;99010.03;5031303;28;20255;-66
2023/06/13 09:53:47;;;;;;;9.23;4.10;;;;;;;31.72;43.78;99004.84;5031823;28;20224;-65
2023/06/13 09:56:14;;;;;;;5.67;4.20;;;;;;;31.52;43.13;99019.53;5031677;28;20201;-67
2023/06/13 09:58:42;;;;;;;4.30;4.00;;;;;;;31.33;45.06;99011.09;5029927;28;20224;-67
2023/06/13 10:01:12;;;;;;;5.70;3.87;;;;;;;31.32;43.78;99012.22;5030531;28;20193;-67
2023/06/13 10:03:41;;;;;;;4.33;3.93;;;;;;;31.48;42.88;99015.88;5031028;28;20828;-69
2023/06/13 10:06:07;;;;;;;5.57;4.40;;;;;;;31.11;43.93;99011.50;5029544;28;20189;-66
2023/06/13 10:08:34;;;;;;;5.07;4.70;;;;;;;30.81;44.81;99018.31;5031004;28;20197;-65
2023/06/13 10:11:07;;;;;;;8.80;4.30;;;;;;;30.63;44.26;99005.91;5030036;28;20197;-66
2023/06/13 10:13:40;;;;;;;4.63;4.07;;;;;;;30.61;46.36;99001.88;5031389;28;20267;-66
2023/06/13 10:16:09;;;;;;;4.63;4.33;;;;;;;30.22;46.61;99000.50;5030240;28;20190;-67
2023/06/13 10:18:38;;;;;;;4.20;4.00;;;;;;;29.83;48.47;98987.25;5031343;28;20193;-67
2023/06/13 10:21:07;;;;;;;5.27;4.53;;;;;;;29.86;47.53;98992.09;5030487;28;20193;-68
2023/06/13 10:23:38;;;;;;;5.63;4.03;;;;;;;29.79;46.40;98991.81;5030731;28;20193;-67
2023/06/13 10:26:09;;;;;;;4.23;4.03;;;;;;;29.85;46.09;98985.00;5030123;28;20189;-68
2023/06/13 10:28:51;;;;;;;9.53;4.23;;;;;;;29.86;44.82;98991.25;5031045;28;20196;-67
2023/06/13 10:31:31;;;;;;;9.80;4.50;;;;;;;29.64;46.34;98984.16;5031250;28;20200;-68
2023/06/13 10:34:15;;;;;;;5.20;3.93;;;;;;;29.41;47.74;98974.66;5030254;28;20205;-69
2023/06/13 10:37:05;;;;;;;5.07;4.67;;;;;;;29.48;46.73;98979.59;5029547;28;20565;-66
2023/06/13 10:39:53;;;;;;;5.17;4.10;;;;;;;29.38;48.70;98974.50;5030424;28;20299;-69
2023/06/13 10:42:25;;;;;;;8.53;5.10;;;;;;;29.58;47.74;98974.56;5009604;28;20190;-69
2023/06/13 10:44:59;;;;;;;4.47;4.10;;;;;;;29.85;47.87;98982.28;5009269;28;20206;-69
2023/06/13 10:47:30;;;;;;;6.77;4.17;;;;;;;30.23;45.06;98990.34;5009840;28;20182;-69
2023/06/13 10:49:57;;;;;;;5.47;3.70;;;;;;;30.50;45.34;98978.78;5010403;28;20260;-68
2023/06/13 10:52:25;;;;;;;9.80;4.20;;;;;;;30.48;44.27;98981.88;5008679;28;20186;-68
2023/06/13 10:54:54;;;;;;;11.17;4.60;;;;;;;30.40;43.87;98979.19;5009438;28;20233;-67
2023/06/13 10:57:21;;;;;;;3.97;3.67;;;;;;;30.28;44.53;98976.41;5009031;28;20197;-66
2023/06/13 10:59:49;;;;;;;8.17;3.90;;;;;;;30.44;44.23;98967.22;5009754;28;20190;-68
2023/06/13 11:02:17;;;;;;;4.57;4.17;;;;;;;30.52;42.89;98974.56;5028843;28;20186;-66
2023/06/13 11:04:52;;;;;;;4.80;3.87;;;;;;;30.34;43.12;98975.09;5029089;28;20629;-67
2023/06/13 11:07:28;;;;;;;4.23;3.93;;;;;;;30.26;44.04;98971.31;5033811;28;20185;-67
2023/06/13 11:10:10;;;;;;;7.10;4.00;;;;;;;30.25;44.91;98966.94;5032913;28;20191;-64
2023/06/13 11:12:37;;;;;;;4.73;4.33;;;;;;;30.25;44.83;98955.19;5045353;28;20975;-68
2023/06/13 11:15:05;;;;;;;4.00;3.80;;;;;;;30.08;43.71;98956.09;5050893;28;20216;-66
2023/06/13 11:17:33;;;;;;;4.37;4.00;;;;;;;29.99;43.87;98947.16;5052872;28;20200;-64
2023/06/13 11:20:00;;;;;;;8.13;4.27;;;;;;;29.88;46.16;98945.97;5015062;28;20201;-67
2023/06/13 11:22:29;;;;;;;4.27;3.97;;;;;;;29.91;44.08;98950.78;5033168;28;20255;-66
2023/06/13 11:24:58;;;;;;;4.47;4.07;;;;;;;30.06;44.13;98941.97;5034912;28;20278;-67
2023/06/13 11:27:25;;;;;;;3.80;3.60;;;;;;;30.26;44.17;98941.16;5033235;28;20305;-66
2023/06/13 11:29:52;;;;;;;3.90;3.70;;;;;;;30.35;41.97;98944.59;5033227;28;20560;-63
2023/06/13 11:32:19;;;;;;;4.47;3.90;;;;;;;30.20;42.25;98933.44;5033828;28;20278;-63
2023/06/13 11:34:50;;;;;;;4.50;4.10;;;;;;;30.13;43.20;98942.19;5033309;28;20278;-64